sensor_id;sensor_type;location;lat;lon;timestamp;pressure;altitude;pressure_sealevel;temperature
76898;BMP180;65856;52.178;21.176;2023-02-25T00:01:27;98252.00;;;4.60
76898;BMP180;65856;52.178;21.176;2023-02-25T00:03:56;98255.20;;;4.60
76898;BMP180;65856;52.178;21.176;2023-02-25T00:06:25;98257.40;;;4.58
76898;BMP180;65856;52.178;21.176;2023-02-25T00:08:54;98250.20;;;4.60
76898;BMP180;65856;52.178;21.176;2023-02-25T00:11:24;98243.80;;;4.60
76898;BMP180;65856;52.178;21.176;2023-02-25T00:13:52;98233.00;;;4.62
76898;BMP180;65856;52.178;21.176;2023-02-25T00:16:23;98229.80;;;4.70
76898;BMP180;65856;52.178;21.176;2023-02-25T00:18:54;98224.40;;;4.70
76898;BMP180;65856;52.178;21.176;2023-02-25T00:21:23;98227.80;;;4.68
76898;BMP180;65856;52.178;21.176;2023-02-25T00:23:51;98233.40;;;4.70
76898;BMP180;65856;52.178;21.176;2023-02-25T00:26:20;98224.20;;;4.70
76898;BMP180;65856;52.178;21.176;2023-02-25T00:28:49;98217.60;;;4.70
76898;BMP180;65856;52.178;21.176;2023-02-25T00:31:20;98219.20;;;4.70
76898;BMP180;65856;52.178;21.176;2023-02-25T00:33:48;98215.80;;;4.66
76898;BMP180;65856;52.178;21.176;2023-02-25T00:36:19;98215.00;;;4.60
76898;BMP180;65856;52.178;21.176;2023-02-25T01:23:44;98155.80;;;4.50
76898;BMP180;65856;52.178;21.176;2023-02-25T01:26:13;98153.00;;;4.50
76898;BMP180;65856;52.178;21.176;2023-02-25T01:28:42;98146.20;;;4.50
76898;BMP180;65856;52.178;21.176;2023-02-25T01:31:17;98139.40;;;4.48
76898;BMP180;65856;52.178;21.176;2023-02-25T01:33:46;98130.00;;;4.50
76898;BMP180;65856;52.178;21.176;2023-02-25T01:36:14;98127.40;;;4.50
76898;BMP180;65856;52.178;21.176;2023-02-25T01:38:42;98122.40;;;4.50
76898;BMP180;65856;52.178;21.176;2023-02-25T01:41:10;98127.20;;;4.42
76898;BMP180;65856;52.178;21.176;2023-02-25T01:43:39;98128.40;;;4.40
76898;BMP180;65856;52.178;21.176;2023-02-25T01:46:08;98118.20;;;4.40
76898;BMP180;65856;52.178;21.176;2023-02-25T01:48:39;98122.20;;;4.40
76898;BMP180;65856;52.178;21.176;2023-02-25T01:51:10;98112.60;;;4.40
76898;BMP180;65856;52.178;21.176;2023-02-25T01:57:14;98099.60;;;4.50
76898;BMP180;65856;52.178;21.176;2023-02-25T01:59:42;98095.00;;;4.50
76898;BMP180;65856;52.178;21.176;2023-02-25T02:02:16;98094.00;;;4.50
76898;BMP180;65856;52.178;21.176;2023-02-25T02:04:46;98090.40;;;4.58
76898;BMP180;65856;52.178;21.176;2023-02-25T02:07:16;98086.00;;;4.60
76898;BMP180;65856;52.178;21.176;2023-02-25T02:09:45;98086.80;;;4.60
76898;BMP180;65856;52.178;21.176;2023-02-25T02:12:23;98087.60;;;4.60
76898;BMP180;65856;52.178;21.176;2023-02-25T02:14:53;98083.40;;;4.62
76898;BMP180;65856;52.178;21.176;2023-02-25T02:17:28;98079.20;;;4.60
76898;BMP180;65856;52.178;21.176;2023-02-25T02:20:07;98076.00;;;4.62
76898;BMP180;65856;52.178;21.176;2023-02-25T02:22:48;98072.00;;;4.64
76898;BMP180;65856;52.178;21.176;2023-02-25T02:25:50;98067.80;;;4.60
76898;BMP180;65856;52.178;21.176;2023-02-25T02:31:40;98045.80;;;4.70
76898;BMP180;65856;52.178;21.176;2023-02-25T02:34:26;98040.00;;;4.68
76898;BMP180;65856;52.178;21.176;2023-02-25T02:37:11;98038.40;;;4.60
76898;BMP180;65856;52.178;21.176;2023-02-25T02:42:16;98038.00;;;4.60
76898;BMP180;65856;52.178;21.176;2023-02-25T02:44:56;98037.80;;;4.60
76898;BMP180;65856;52.178;21.176;2023-02-25T02:47:32;98038.60;;;4.60
76898;BMP180;65856;52.178;21.176;2023-02-25T02:50:07;98032.00;;;4.60
76898;BMP180;65856;52.178;21.176;2023-02-25T02:52:41;98030.40;;;4.60
76898;BMP180;65856;52.178;21.176;2023-02-25T02:55:17;98024.80;;;4.60
76898;BMP180;65856;52.178;21.176;2023-02-25T02:57:52;98014.00;;;4.60
76898;BMP180;65856;52.178;21.176;2023-02-25T03:00:26;98009.80;;;4.60
76898;BMP180;65856;52.178;21.176;2023-02-25T03:03:00;98003.20;;;4.60
76898;BMP180;65856;52.178;21.176;2023-02-25T03:05:34;98004.80;;;4.50
76898;BMP180;65856;52.178;21.176;2023-02-25T03:08:11;98008.80;;;4.50
76898;BMP180;65856;52.178;21.176;2023-02-25T03:10:41;98002.20;;;4.50
76898;BMP180;65856;52.178;21.176;2023-02-25T03:13:10;98001.00;;;4.50
76898;BMP180;65856;52.178;21.176;2023-02-25T03:15:40;98000.00;;;4.50
76898;BMP180;65856;52.178;21.176;2023-02-25T03:18:15;98005.80;;;4.50
76898;BMP180;65856;52.178;21.176;2023-02-25T03:20:47;97995.40;;;4.50
76898;BMP180;65856;52.178;21.176;2023-02-25T03:23:23;97991.20;;;4.40
76898;BMP180;65856;52.178;21.176;2023-02-25T03:25:58;97989.80;;;4.50
76898;BMP180;65856;52.178;21.176;2023-02-25T03:28:34;97986.80;;;4.50
76898;BMP180;65856;52.178;21.176;2023-02-25T03:31:08;97982.00;;;4.50
76898;BMP180;65856;52.178;21.176;2023-02-25T03:33:42;97977.00;;;4.48
76898;BMP180;65856;52.178;21.176;2023-02-25T03:36:18;97981.80;;;4.48
76898;BMP180;65856;52.178;21.176;2023-02-25T03:38:54;97981.60;;;4.48
76898;BMP180;65856;52.178;21.176;2023-02-25T03:41:28;97976.00;;;4.50
76898;BMP180;65856;52.178;21.176;2023-02-25T03:43:59;97976.40;;;4.48
76898;BMP180;65856;52.178;21.176;2023-02-25T03:46:30;97973.20;;;4.50
76898;BMP180;65856;52.178;21.176;2023-02-25T03:49:01;97973.20;;;4.44
76898;BMP180;65856;52.178;21.176;2023-02-25T03:51:34;97986.80;;;4.50
76898;BMP180;65856;52.178;21.176;2023-02-25T03:54:03;97987.40;;;4.50
76898;BMP180;65856;52.178;21.176;2023-02-25T03:56:43;97991.20;;;4.44
76898;BMP180;65856;52.178;21.176;2023-02-25T03:59:12;97994.20;;;4.40
76898;BMP180;65856;52.178;21.176;2023-02-25T04:01:44;97997.40;;;4.40
76898;BMP180;65856;52.178;21.176;2023-02-25T04:04:13;97994.20;;;4.34
76898;BMP180;65856;52.178;21.176;2023-02-25T04:06:41;97988.80;;;4.30
76898;BMP180;65856;52.178;21.176;2023-02-25T04:09:09;97985.40;;;4.28
76898;BMP180;65856;52.178;21.176;2023-02-25T04:11:37;97984.20;;;4.20
76898;BMP180;65856;52.178;21.176;2023-02-25T04:14:06;97987.60;;;4.20
76898;BMP180;65856;52.178;21.176;2023-02-25T04:16:34;97993.00;;;4.18
76898;BMP180;65856;52.178;21.176;2023-02-25T04:19:02;97986.60;;;4.04
76898;BMP180;65856;52.178;21.176;2023-02-25T04:21:33;97991.60;;;4.00
76898;BMP180;65856;52.178;21.176;2023-02-25T04:24:03;97997.20;;;3.90
76898;BMP180;65856;52.178;21.176;2023-02-25T04:26:33;97999.00;;;3.88
76898;BMP180;65856;52.178;21.176;2023-02-25T04:29:02;97993.80;;;3.80
76898;BMP180;65856;52.178;21.176;2023-02-25T04:31:30;97995.40;;;3.70
76898;BMP180;65856;52.178;21.176;2023-02-25T04:33:58;98000.80;;;3.70
76898;BMP180;65856;52.178;21.176;2023-02-25T04:36:29;97997.80;;;3.64
76898;BMP180;65856;52.178;21.176;2023-02-25T04:39:00;98004.40;;;3.70
76898;BMP180;65856;52.178;21.176;2023-02-25T04:41:31;98001.40;;;3.60
76898;BMP180;65856;52.178;21.176;2023-02-25T04:43:59;98005.60;;;3.60
76898;BMP180;65856;52.178;21.176;2023-02-25T04:46:31;97999.00;;;3.50
76898;BMP180;65856;52.178;21.176;2023-02-25T04:48:59;97999.40;;;3.50
76898;BMP180;65856;52.178;21.176;2023-02-25T04:51:28;97995.60;;;3.50
76898;BMP180;65856;52.178;21.176;2023-02-25T04:53:56;97989.00;;;3.40
76898;BMP180;65856;52.178;21.176;2023-02-25T04:56:24;97983.20;;;3.40
76898;BMP180;65856;52.178;21.176;2023-02-25T04:58:53;97981.60;;;3.40
76898;BMP180;65856;52.178;21.176;2023-02-25T05:01:21;97983.80;;;3.40
76898;BMP180;65856;52.178;21.176;2023-02-25T05:03:49;97977.40;;;3.40
76898;BMP180;65856;52.178;21.176;2023-02-25T05:06:23;97977.60;;;3.38
76898;BMP180;65856;52.178;21.176;2023-02-25T05:08:51;97976.20;;;3.40
76898;BMP180;65856;52.178;21.176;2023-02-25T05:11:20;97977.40;;;3.40
76898;BMP180;65856;52.178;21.176;2023-02-25T05:13:48;97978.80;;;3.40
76898;BMP180;65856;52.178;21.176;2023-02-25T05:16:18;97976.00;;;3.30
76898;BMP180;65856;52.178;21.176;2023-02-25T05:18:47;97984.40;;;3.30
76898;BMP180;65856;52.178;21.176;2023-02-25T05:21:17;97982.00;;;3.30
76898;BMP180;65856;52.178;21.176;2023-02-25T05:23:48;97987.20;;;3.30
76898;BMP180;65856;52.178;21.176;2023-02-25T05:26:20;97993.20;;;3.30
76898;BMP180;65856;52.178;21.176;2023-02-25T05:28:50;97990.20;;;3.30
76898;BMP180;65856;52.178;21.176;2023-02-25T05:31:19;97990.80;;;3.30
76898;BMP180;65856;52.178;21.176;2023-02-25T05:33:47;97991.40;;;3.30
76898;BMP180;65856;52.178;21.176;2023-02-25T05:36:17;97991.80;;;3.30
76898;BMP180;65856;52.178;21.176;2023-02-25T05:38:46;97989.20;;;3.30
76898;BMP180;65856;52.178;21.176;2023-02-25T05:41:14;97994.60;;;3.30
76898;BMP180;65856;52.178;21.176;2023-02-25T05:43:42;97991.80;;;3.30
76898;BMP180;65856;52.178;21.176;2023-02-25T05:46:13;97991.20;;;3.30
76898;BMP180;65856;52.178;21.176;2023-02-25T05:48:43;97996.60;;;3.30
76898;BMP180;65856;52.178;21.176;2023-02-25T05:51:14;97994.60;;;3.28
76898;BMP180;65856;52.178;21.176;2023-02-25T05:53:43;97999.20;;;3.20
76898;BMP180;65856;52.178;21.176;2023-02-25T05:56:15;98007.60;;;3.20
76898;BMP180;65856;52.178;21.176;2023-02-25T05:58:44;98003.20;;;3.20
76898;BMP180;65856;52.178;21.176;2023-02-25T06:01:15;98002.80;;;3.24
76898;BMP180;65856;52.178;21.176;2023-02-25T06:03:46;98005.00;;;3.30
76898;BMP180;65856;52.178;21.176;2023-02-25T06:06:17;98007.20;;;3.30
76898;BMP180;65856;52.178;21.176;2023-02-25T06:08:50;98011.40;;;3.30
76898;BMP180;65856;52.178;21.176;2023-02-25T06:11:21;98012.80;;;3.30
76898;BMP180;65856;52.178;21.176;2023-02-25T06:13:50;98010.80;;;3.30
76898;BMP180;65856;52.178;21.176;2023-02-25T06:16:20;98011.00;;;3.30
76898;BMP180;65856;52.178;21.176;2023-02-25T06:18:48;98008.40;;;3.30
76898;BMP180;65856;52.178;21.176;2023-02-25T06:21:18;98010.40;;;3.40
76898;BMP180;65856;52.178;21.176;2023-02-25T06:23:46;98004.60;;;3.40
76898;BMP180;65856;52.178;21.176;2023-02-25T06:26:17;98005.80;;;3.40
76898;BMP180;65856;52.178;21.176;2023-02-25T06:28:45;98009.40;;;3.40
76898;BMP180;65856;52.178;21.176;2023-02-25T06:31:16;98006.00;;;3.40
76898;BMP180;65856;52.178;21.176;2023-02-25T06:33:44;98005.00;;;3.40
76898;BMP180;65856;52.178;21.176;2023-02-25T06:36:13;98004.80;;;3.40
76898;BMP180;65856;52.178;21.176;2023-02-25T06:38:42;98010.80;;;3.50
76898;BMP180;65856;52.178;21.176;2023-02-25T06:41:14;98007.60;;;3.50
76898;BMP180;65856;52.178;21.176;2023-02-25T06:43:44;98007.60;;;3.50
76898;BMP180;65856;52.178;21.176;2023-02-25T06:46:14;98013.60;;;3.50
76898;BMP180;65856;52.178;21.176;2023-02-25T06:48:42;98013.20;;;3.58
76898;BMP180;65856;52.178;21.176;2023-02-25T06:51:10;98016.80;;;3.60
76898;BMP180;65856;52.178;21.176;2023-02-25T06:53:41;98011.40;;;3.60
76898;BMP180;65856;52.178;21.176;2023-02-25T06:56:11;98011.60;;;3.60
76898;BMP180;65856;52.178;21.176;2023-02-25T06:58:40;98015.00;;;3.60
76898;BMP180;65856;52.178;21.176;2023-02-25T07:01:10;98008.00;;;3.60
76898;BMP180;65856;52.178;21.176;2023-02-25T07:03:38;98013.00;;;3.60
76898;BMP180;65856;52.178;21.176;2023-02-25T07:06:08;98015.00;;;3.60
76898;BMP180;65856;52.178;21.176;2023-02-25T07:08:36;98016.60;;;3.60
76898;BMP180;65856;52.178;21.176;2023-02-25T07:11:26;98010.40;;;3.60
76898;BMP180;65856;52.178;21.176;2023-02-25T07:13:55;98008.80;;;3.70
76898;BMP180;65856;52.178;21.176;2023-02-25T07:16:23;98009.20;;;3.70
76898;BMP180;65856;52.178;21.176;2023-02-25T07:18:51;98011.00;;;3.70
76898;BMP180;65856;52.178;21.176;2023-02-25T07:21:19;98011.00;;;3.70
76898;BMP180;65856;52.178;21.176;2023-02-25T07:23:47;98017.40;;;3.70
76898;BMP180;65856;52.178;21.176;2023-02-25T07:26:16;98014.40;;;3.70
76898;BMP180;65856;52.178;21.176;2023-02-25T07:28:44;98012.40;;;3.80
76898;BMP180;65856;52.178;21.176;2023-02-25T07:31:16;98005.80;;;3.80
76898;BMP180;65856;52.178;21.176;2023-02-25T07:33:45;98009.60;;;3.80
76898;BMP180;65856;52.178;21.176;2023-02-25T07:36:15;98012.80;;;3.80
76898;BMP180;65856;52.178;21.176;2023-02-25T07:38:44;98014.20;;;3.80
76898;BMP180;65856;52.178;21.176;2023-02-25T07:41:15;98015.80;;;3.80
76898;BMP180;65856;52.178;21.176;2023-02-25T07:43:44;98013.00;;;3.84
76898;BMP180;65856;52.178;21.176;2023-02-25T07:46:13;98010.40;;;3.90
76898;BMP180;65856;52.178;21.176;2023-02-25T07:48:41;98008.60;;;3.92
76898;BMP180;65856;52.178;21.176;2023-02-25T07:51:13;98012.60;;;4.00
76898;BMP180;65856;52.178;21.176;2023-02-25T07:53:43;98014.60;;;3.92
76898;BMP180;65856;52.178;21.176;2023-02-25T07:56:12;98015.40;;;3.90
76898;BMP180;65856;52.178;21.176;2023-02-25T07:58:41;98009.80;;;3.92
76898;BMP180;65856;52.178;21.176;2023-02-25T08:01:15;98007.40;;;4.00
76898;BMP180;65856;52.178;21.176;2023-02-25T08:03:45;98010.20;;;4.00
76898;BMP180;65856;52.178;21.176;2023-02-25T08:06:15;98007.40;;;4.00
76898;BMP180;65856;52.178;21.176;2023-02-25T08:08:43;98000.40;;;4.00
76898;BMP180;65856;52.178;21.176;2023-02-25T08:11:13;98004.40;;;4.10
76898;BMP180;65856;52.178;21.176;2023-02-25T08:13:41;98011.20;;;4.20
76898;BMP180;65856;52.178;21.176;2023-02-25T08:16:12;98017.20;;;4.20
76898;BMP180;65856;52.178;21.176;2023-02-25T08:18:41;98016.40;;;4.30
76898;BMP180;65856;52.178;21.176;2023-02-25T08:21:11;98026.80;;;4.30
76898;BMP180;65856;52.178;21.176;2023-02-25T08:23:39;98028.00;;;4.30
76898;BMP180;65856;52.178;21.176;2023-02-25T08:26:08;98022.00;;;4.30
76898;BMP180;65856;52.178;21.176;2023-02-25T08:28:36;98022.40;;;4.28
76898;BMP180;65856;52.178;21.176;2023-02-25T08:31:08;98022.40;;;4.20
76898;BMP180;65856;52.178;21.176;2023-02-25T08:33:40;98018.40;;;4.24
76898;BMP180;65856;52.178;21.176;2023-02-25T08:36:12;98021.00;;;4.30
76898;BMP180;65856;52.178;21.176;2023-02-25T08:38:41;98018.20;;;4.30
76898;BMP180;65856;52.178;21.176;2023-02-25T08:41:09;98011.20;;;4.30
76898;BMP180;65856;52.178;21.176;2023-02-25T08:43:38;98016.60;;;4.40
76898;BMP180;65856;52.178;21.176;2023-02-25T08:46:07;98018.80;;;4.40
76898;BMP180;65856;52.178;21.176;2023-02-25T08:48:36;98015.40;;;4.50
76898;BMP180;65856;52.178;21.176;2023-02-25T08:51:06;98009.00;;;4.50
76898;BMP180;65856;52.178;21.176;2023-02-25T08:53:35;98008.80;;;4.60
76898;BMP180;65856;52.178;21.176;2023-02-25T08:56:05;98008.00;;;4.62
76898;BMP180;65856;52.178;21.176;2023-02-25T08:58:34;98008.20;;;4.70
76898;BMP180;65856;52.178;21.176;2023-02-25T09:01:07;98000.60;;;4.76
76898;BMP180;65856;52.178;21.176;2023-02-25T09:03:39;98008.20;;;4.84
76898;BMP180;65856;52.178;21.176;2023-02-25T09:06:18;98010.60;;;4.96
76898;BMP180;65856;52.178;21.176;2023-02-25T09:08:46;98005.80;;;5.02
76898;BMP180;65856;52.178;21.176;2023-02-25T09:11:14;98003.80;;;5.10
76898;BMP180;65856;52.178;21.176;2023-02-25T09:13:43;97999.60;;;5.20
76898;BMP180;65856;52.178;21.176;2023-02-25T09:16:11;97998.20;;;5.30
76898;BMP180;65856;52.178;21.176;2023-02-25T09:18:43;98009.60;;;5.40
76898;BMP180;65856;52.178;21.176;2023-02-25T09:21:14;97999.20;;;5.40
76898;BMP180;65856;52.178;21.176;2023-02-25T09:23:42;98001.20;;;5.40
76898;BMP180;65856;52.178;21.176;2023-02-25T09:26:11;97997.20;;;5.50
76898;BMP180;65856;52.178;21.176;2023-02-25T09:28:39;97993.60;;;5.50
76898;BMP180;65856;52.178;21.176;2023-02-25T09:31:07;97993.60;;;5.50
76898;BMP180;65856;52.178;21.176;2023-02-25T09:33:37;97995.00;;;5.50
76898;BMP180;65856;52.178;21.176;2023-02-25T09:36:08;97994.00;;;5.46
76898;BMP180;65856;52.178;21.176;2023-02-25T09:38:38;97985.80;;;5.50
76898;BMP180;65856;52.178;21.176;2023-02-25T09:41:23;97991.40;;;5.60
76898;BMP180;65856;52.178;21.176;2023-02-25T09:44:05;97988.00;;;5.60
76898;BMP180;65856;52.178;21.176;2023-02-25T09:46:39;97985.00;;;5.60
76898;BMP180;65856;52.178;21.176;2023-02-25T09:49:20;97988.40;;;5.68
76898;BMP180;65856;52.178;21.176;2023-02-25T09:51:58;97987.20;;;5.70
76898;BMP180;65856;52.178;21.176;2023-02-25T09:54:34;97986.60;;;5.80
76898;BMP180;65856;52.178;21.176;2023-02-25T09:57:08;97981.60;;;5.90
76898;BMP180;65856;52.178;21.176;2023-02-25T09:59:39;97985.00;;;5.90
76898;BMP180;65856;52.178;21.176;2023-02-25T10:02:28;97982.20;;;6.00
76898;BMP180;65856;52.178;21.176;2023-02-25T10:05:17;97984.00;;;6.00
76898;BMP180;65856;52.178;21.176;2023-02-25T10:07:59;97975.60;;;5.90
76898;BMP180;65856;52.178;21.176;2023-02-25T10:10:44;97970.60;;;5.96
76898;BMP180;65856;52.178;21.176;2023-02-25T10:13:29;97972.00;;;6.10
76898;BMP180;65856;52.178;21.176;2023-02-25T10:16:09;97966.40;;;6.30
76898;BMP180;65856;52.178;21.176;2023-02-25T10:18:59;97965.60;;;6.40
76898;BMP180;65856;52.178;21.176;2023-02-25T10:21:58;97965.00;;;6.46
76898;BMP180;65856;52.178;21.176;2023-02-25T10:24:38;97968.40;;;6.50
76898;BMP180;65856;52.178;21.176;2023-02-25T10:27:19;97970.20;;;6.40
76898;BMP180;65856;52.178;21.176;2023-02-25T10:29:51;97973.40;;;6.30
76898;BMP180;65856;52.178;21.176;2023-02-25T10:32:25;97972.60;;;6.10
76898;BMP180;65856;52.178;21.176;2023-02-25T10:34:57;97972.40;;;5.94
76898;BMP180;65856;52.178;21.176;2023-02-25T10:37:32;97971.40;;;5.88
76898;BMP180;65856;52.178;21.176;2023-02-25T10:40:04;97965.00;;;5.76
76898;BMP180;65856;52.178;21.176;2023-02-25T10:42:37;97965.20;;;5.70
76898;BMP180;65856;52.178;21.176;2023-02-25T10:45:12;97967.00;;;5.70
76898;BMP180;65856;52.178;21.176;2023-02-25T10:47:46;97968.80;;;5.70
76898;BMP180;65856;52.178;21.176;2023-02-25T10:50:20;97974.80;;;5.70
76898;BMP180;65856;52.178;21.176;2023-02-25T10:52:59;97974.40;;;5.70
76898;BMP180;65856;52.178;21.176;2023-02-25T10:55:49;97980.40;;;5.70
76898;BMP180;65856;52.178;21.176;2023-02-25T10:58:39;97983.20;;;5.60
76898;BMP180;65856;52.178;21.176;2023-02-25T11:01:14;97986.00;;;5.40
76898;BMP180;65856;52.178;21.176;2023-02-25T11:03:55;97984.40;;;5.30
76898;BMP180;65856;52.178;21.176;2023-02-25T11:06:28;97986.60;;;5.30
76898;BMP180;65856;52.178;21.176;2023-02-25T11:08:57;97983.60;;;5.22
76898;BMP180;65856;52.178;21.176;2023-02-25T11:11:28;97985.20;;;5.20
76898;BMP180;65856;52.178;21.176;2023-02-25T11:14:03;97983.60;;;5.10
76898;BMP180;65856;52.178;21.176;2023-02-25T11:16:36;97982.40;;;5.00
76898;BMP180;65856;52.178;21.176;2023-02-25T11:19:13;97981.00;;;5.00
76898;BMP180;65856;52.178;21.176;2023-02-25T11:21:45;97979.40;;;5.00
76898;BMP180;65856;52.178;21.176;2023-02-25T11:24:16;97982.40;;;5.00
76898;BMP180;65856;52.178;21.176;2023-02-25T11:26:48;97983.00;;;5.00
76898;BMP180;65856;52.178;21.176;2023-02-25T11:29:21;97980.20;;;4.94
76898;BMP180;65856;52.178;21.176;2023-02-25T11:31:54;97980.00;;;5.00
76898;BMP180;65856;52.178;21.176;2023-02-25T11:34:26;97980.00;;;5.00
76898;BMP180;65856;52.178;21.176;2023-02-25T11:36:56;97981.20;;;5.00
76898;BMP180;65856;52.178;21.176;2023-02-25T11:39:28;97981.80;;;4.90
76898;BMP180;65856;52.178;21.176;2023-02-25T11:42:04;97981.00;;;4.90
76898;BMP180;65856;52.178;21.176;2023-02-25T11:44:46;97984.20;;;4.90
76898;BMP180;65856;52.178;21.176;2023-02-25T11:47:22;97982.20;;;4.98
76898;BMP180;65856;52.178;21.176;2023-02-25T11:50:08;97979.00;;;5.00
76898;BMP180;65856;52.178;21.176;2023-02-25T11:52:47;97983.80;;;5.10
76898;BMP180;65856;52.178;21.176;2023-02-25T11:55:33;97979.60;;;5.18
76898;BMP180;65856;52.178;21.176;2023-02-25T11:58:15;97983.20;;;5.20
76898;BMP180;65856;52.178;21.176;2023-02-25T12:00:58;97984.80;;;5.20
76898;BMP180;65856;52.178;21.176;2023-02-25T12:03:58;97980.00;;;5.30
76898;BMP180;65856;52.178;21.176;2023-02-25T12:06:46;97983.60;;;5.40
76898;BMP180;65856;52.178;21.176;2023-02-25T12:09:37;97985.20;;;5.40
76898;BMP180;65856;52.178;21.176;2023-02-25T12:12:31;97980.80;;;5.50
76898;BMP180;65856;52.178;21.176;2023-02-25T12:15:29;97984.60;;;5.60
76898;BMP180;65856;52.178;21.176;2023-02-25T12:25:15;97977.60;;;6.10
76898;BMP180;65856;52.178;21.176;2023-02-25T12:31:51;97985.00;;;6.20
76898;BMP180;65856;52.178;21.176;2023-02-25T12:35:06;98002.00;;;6.20
76898;BMP180;65856;52.178;21.176;2023-02-25T12:38:12;98021.80;;;5.70
76898;BMP180;65856;52.178;21.176;2023-02-25T12:41:11;98009.40;;;5.30
76898;BMP180;65856;52.178;21.176;2023-02-25T12:43:48;98009.60;;;5.10
76898;BMP180;65856;52.178;21.176;2023-02-25T12:46:46;98007.00;;;5.00
76898;BMP180;65856;52.178;21.176;2023-02-25T12:52:55;98008.80;;;4.90
76898;BMP180;65856;52.178;21.176;2023-02-25T12:55:53;98012.40;;;4.90
76898;BMP180;65856;52.178;21.176;2023-02-25T12:58:41;98008.20;;;4.90
76898;BMP180;65856;52.178;21.176;2023-02-25T13:01:37;98012.20;;;4.90
76898;BMP180;65856;52.178;21.176;2023-02-25T13:04:42;98010.40;;;5.00
76898;BMP180;65856;52.178;21.176;2023-02-25T13:07:35;98008.80;;;5.00
76898;BMP180;65856;52.178;21.176;2023-02-25T13:10:25;98010.00;;;5.02
76898;BMP180;65856;52.178;21.176;2023-02-25T13:13:22;98010.40;;;5.10
76898;BMP180;65856;52.178;21.176;2023-02-25T13:16:12;98019.40;;;5.18
76898;BMP180;65856;52.178;21.176;2023-02-25T13:18:55;98033.20;;;5.20
76898;BMP180;65856;52.178;21.176;2023-02-25T13:21:49;98037.00;;;5.10
76898;BMP180;65856;52.178;21.176;2023-02-25T13:24:36;98045.60;;;5.00
76898;BMP180;65856;52.178;21.176;2023-02-25T13:27:49;98042.20;;;4.80
76898;BMP180;65856;52.178;21.176;2023-02-25T13:30:37;98041.00;;;4.70
76898;BMP180;65856;52.178;21.176;2023-02-25T13:33:29;98050.20;;;4.50
76898;BMP180;65856;52.178;21.176;2023-02-25T13:36:29;98050.00;;;4.36
76898;BMP180;65856;52.178;21.176;2023-02-25T13:39:24;98050.20;;;4.20
76898;BMP180;65856;52.178;21.176;2023-02-25T13:42:29;98054.20;;;4.10
76898;BMP180;65856;52.178;21.176;2023-02-25T13:45:44;98050.20;;;4.20
76898;BMP180;65856;52.178;21.176;2023-02-25T13:52:16;98059.20;;;4.50
76898;BMP180;65856;52.178;21.176;2023-02-25T13:55:21;98060.60;;;4.64
76898;BMP180;65856;52.178;21.176;2023-02-25T13:58:22;98059.00;;;4.78
76898;BMP180;65856;52.178;21.176;2023-02-25T14:01:11;98063.40;;;4.90
76898;BMP180;65856;52.178;21.176;2023-02-25T14:04:22;98064.80;;;4.90
76898;BMP180;65856;52.178;21.176;2023-02-25T14:07:17;98064.60;;;4.90
76898;BMP180;65856;52.178;21.176;2023-02-25T14:09:58;98070.80;;;4.98
76898;BMP180;65856;52.178;21.176;2023-02-25T14:12:45;98069.80;;;5.00
76898;BMP180;65856;52.178;21.176;2023-02-25T14:15:45;98075.20;;;5.02
76898;BMP180;65856;52.178;21.176;2023-02-25T14:18:30;98078.00;;;5.10
76898;BMP180;65856;52.178;21.176;2023-02-25T14:21:33;98077.00;;;5.18
76898;BMP180;65856;52.178;21.176;2023-02-25T14:24:08;98081.00;;;5.20
76898;BMP180;65856;52.178;21.176;2023-02-25T14:26:44;98082.20;;;5.20
76898;BMP180;65856;52.178;21.176;2023-02-25T14:29:27;98084.80;;;5.20
76898;BMP180;65856;52.178;21.176;2023-02-25T14:32:25;98084.00;;;5.20
76898;BMP180;65856;52.178;21.176;2023-02-25T14:35:16;98086.80;;;5.10
76898;BMP180;65856;52.178;21.176;2023-02-25T14:38:03;98088.60;;;5.10
76898;BMP180;65856;52.178;21.176;2023-02-25T14:40:42;98088.00;;;5.00
76898;BMP180;65856;52.178;21.176;2023-02-25T14:43:37;98097.80;;;5.00
76898;BMP180;65856;52.178;21.176;2023-02-25T14:46:16;98100.00;;;4.90
76898;BMP180;65856;52.178;21.176;2023-02-25T14:48:57;98099.40;;;4.80
76898;BMP180;65856;52.178;21.176;2023-02-25T14:52:06;98109.80;;;4.80
76898;BMP180;65856;52.178;21.176;2023-02-25T14:55:23;98115.20;;;4.80
76898;BMP180;65856;52.178;21.176;2023-02-25T14:58:46;98120.40;;;4.80
76898;BMP180;65856;52.178;21.176;2023-02-25T15:04:55;98128.80;;;4.80
76898;BMP180;65856;52.178;21.176;2023-02-25T15:07:59;98133.80;;;4.80
76898;BMP180;65856;52.178;21.176;2023-02-25T15:10:47;98137.40;;;4.80
76898;BMP180;65856;52.178;21.176;2023-02-25T15:17:46;98145.80;;;4.60
76898;BMP180;65856;52.178;21.176;2023-02-25T15:20:33;98147.00;;;4.50
76898;BMP180;65856;52.178;21.176;2023-02-25T15:23:11;98148.00;;;4.58
76898;BMP180;65856;52.178;21.176;2023-02-25T15:25:48;98151.00;;;4.52
76898;BMP180;65856;52.178;21.176;2023-02-25T15:28:42;98157.60;;;4.54
76898;BMP180;65856;52.178;21.176;2023-02-25T15:31:27;98164.80;;;4.52
76898;BMP180;65856;52.178;21.176;2023-02-25T15:34:38;98168.80;;;4.50
76898;BMP180;65856;52.178;21.176;2023-02-25T15:37:35;98175.60;;;4.40
76898;BMP180;65856;52.178;21.176;2023-02-25T15:40:43;98179.60;;;4.34
76898;BMP180;65856;52.178;21.176;2023-02-25T15:43:45;98182.20;;;4.30
76898;BMP180;65856;52.178;21.176;2023-02-25T15:46:47;98185.20;;;4.30
76898;BMP180;65856;52.178;21.176;2023-02-25T15:49:27;98193.40;;;4.20
76898;BMP180;65856;52.178;21.176;2023-02-25T15:52:02;98194.60;;;4.20
76898;BMP180;65856;52.178;21.176;2023-02-25T15:54:50;98200.20;;;4.20
76898;BMP180;65856;52.178;21.176;2023-02-25T15:57:39;98205.40;;;4.20
76898;BMP180;65856;52.178;21.176;2023-02-25T16:00:57;98207.60;;;4.28
76898;BMP180;65856;52.178;21.176;2023-02-25T16:03:41;98217.00;;;4.30
76898;BMP180;65856;52.178;21.176;2023-02-25T16:06:17;98217.40;;;4.26
76898;BMP180;65856;52.178;21.176;2023-02-25T16:09:06;98221.00;;;4.20
76898;BMP180;65856;52.178;21.176;2023-02-25T16:11:38;98227.80;;;4.16
76898;BMP180;65856;52.178;21.176;2023-02-25T16:14:20;98227.60;;;4.10
76898;BMP180;65856;52.178;21.176;2023-02-25T16:16:53;98233.40;;;4.10
76898;BMP180;65856;52.178;21.176;2023-02-25T16:19:27;98237.60;;;4.10
76898;BMP180;65856;52.178;21.176;2023-02-25T16:22:01;98240.40;;;4.06
76898;BMP180;65856;52.178;21.176;2023-02-25T16:24:31;98246.20;;;4.00